Latest Weather Observations for Swan Island

IDT60801

Issued at 7:35 am EST Friday 25 April 2014 (issued every 30 minutes, with the page automatically refreshed every 10 minutes)

About weather observations | Map of weather stations | Latest weather observations for TAS | Other Formats
Station Details ID: 092123 Name: SWAN ISLAND Lat: -40.73 Lon: 148.12 Height: 15.0 m
Data from the previous 72 hours. | See also: Recent months at Swan Island
Date/Time
EST
Temp
°C
App
Temp
°C
Dew
Point
Rel
Hum
%
Delta-T
°C
Wind Press
QNH
hPa
Press
MSL
hPa
Rain
since 9 am
mm
Dir
 
Spd
km/h
Gust
km/h
Spd
kts
Gust
kts
25/07:30am 7.9 5.7 5.2 83 1.2 WSW 6 9 3 5 1021.2 - 0.2
25/07:00am 7.0 4.4 4.1 82 1.2 WSW 7 9 4 5 1021.0 1020.9 0.2
25/06:30am 7.5 5.1 4.5 81 1.3 SW 6 9 3 5 1020.9 - 0.2
25/06:00am 7.3 4.2 3.7 78 1.5 WSW 9 13 5 7 1020.8 1020.7 0.2
25/05:30am 7.8 4.4 4.0 77 1.6 WSW 11 15 6 8 1020.7 - 0.2
25/05:00am 7.8 4.5 4.7 81 1.4 W 11 15 6 8 1020.4 1020.3 0.2
25/04:30am 6.8 4.1 3.9 82 1.2 WSW 7 11 4 6 1020.1 - 0.2
25/04:00am 7.1 4.4 3.7 79 1.4 WSW 7 11 4 6 1019.8 1019.7 0.2
25/03:30am 7.4 4.3 3.6 77 1.6 WSW 9 15 5 8 1019.8 - 0.2
25/03:00am 7.1 3.5 2.8 74 1.8 WSW 11 15 6 8 1019.7 1019.6 0.2
25/02:30am 6.8 4.0 2.9 76 1.6 WSW 7 11 4 6 1019.9 - 0.2
25/02:00am 7.8 4.6 3.1 72 2.0 SW 9 13 5 7 1019.9 1019.8 0.2
25/01:30am 8.3 4.4 3.2 70 2.2 WSW 13 20 7 11 1019.6 - 0.2
25/01:00am 8.6 4.4 3.8 72 2.1 WSW 15 22 8 12 1019.6 1019.5 0.2
25/12:30am 8.6 4.8 4.0 73 2.0 WSW 13 19 7 10 1019.7 - 0.2
25/12:00am 8.6 4.7 3.6 71 2.1 WSW 13 19 7 10 1019.6 1019.5 0.2
 
Date/Time
EST
Temp
°C
App
Temp
°C
Dew
Point
Rel
Hum
%
Delta-T
°C
Wind Press
QNH
hPa
Press
MSL
hPa
Rain
since 9 am
mm
Dir
 
Spd
km/h
Gust
km/h
Spd
kts
Gust
kts
24/11:30pm 8.8 4.9 3.6 70 2.2 WSW 13 20 7 11 1019.5 - 0.2
24/11:00pm 9.2 4.9 3.4 67 2.5 WSW 15 24 8 13 1019.7 1019.6 0.2
24/10:30pm 9.4 4.7 3.4 66 2.6 WSW 17 22 9 12 1019.5 - 0.2
24/10:00pm 9.5 5.2 3.5 66 2.6 WSW 15 22 8 12 1019.1 1019.0 0.2
24/09:30pm 9.7 5.0 3.2 64 2.8 WSW 17 22 9 12 1018.7 - 0.2
24/09:00pm 10.0 6.5 3.7 65 2.8 SW 11 19 6 10 1018.7 1018.6 0.2
24/08:30pm 10.4 6.9 3.7 63 2.9 WSW 11 19 6 10 1018.1 - 0.2
24/08:00pm 10.8 5.8 3.4 60 3.2 WSW 19 26 10 14 1017.5 1017.4 0.2
24/07:30pm 10.9 6.7 3.9 62 3.1 WSW 15 22 8 12 1017.0 - 0.2
24/07:00pm 11.4 6.4 3.7 59 3.4 WSW 19 30 10 16 1016.3 1016.2 0.2
24/06:30pm 11.5 6.3 3.5 58 3.5 WSW 20 28 11 15 1015.5 - 0.2
24/06:00pm 11.7 6.4 3.2 56 3.7 WSW 20 33 11 18 1015.0 1014.9 0.2
24/05:30pm 11.9 6.3 3.7 57 3.7 WSW 22 35 12 19 1014.3 - 0.2
24/05:00pm 12.8 6.6 4.3 56 3.9 W 26 43 14 23 1013.2 1013.1 0.2
24/04:30pm 13.3 5.8 6.2 62 3.4 W 35 48 19 26 1012.6 - 0.2
24/04:00pm 13.6 6.2 6.9 64 3.2 W 35 46 19 25 1012.1 1012.0 0.2
24/03:30pm 13.8 5.2 6.7 62 3.4 W 41 57 22 31 1011.4 - 0.2
24/03:22pm 14.0 5.9 6.8 62 3.5 W 39 57 21 31 1011.3 - 0.2
24/03:00pm 14.1 6.4 7.2 63 3.4 W 37 50 20 27 1010.9 1010.8 0.2
24/02:30pm 14.3 6.2 7.1 62 3.5 W 39 57 21 31 1010.0 - 0.2
24/02:24pm 14.3 6.2 7.1 62 3.5 W 39 57 21 31 1009.9 - 0.2
24/02:00pm 14.3 6.0 7.8 65 3.2 W 41 54 22 29 1009.5 1009.5 0.2
24/01:36pm 14.2 5.9 7.9 66 3.1 W 41 61 22 33 1009.2 - 0.2
24/01:30pm 14.2 5.5 7.9 66 3.1 W 43 61 23 33 1009.2 - 0.2
24/01:00pm 14.1 5.3 8.1 67 3.0 W 44 63 24 34 1008.7 1008.7 0.2
24/12:42pm 14.2 4.7 8.4 68 2.9 W 48 67 26 36 1008.5 - 0.2
24/12:30pm 14.1 4.2 8.1 67 3.0 W 50 69 27 37 1008.0 - 0.2
24/12:00pm 14.2 5.4 9.4 73 2.5 W 46 67 25 36 1007.8 1007.8 0.2
24/11:51am 14.0 4.8 9.4 74 2.4 W 48 67 26 36 1007.8 - 0.2
24/11:30am 14.2 5.0 9.4 73 2.5 W 48 65 26 35 1007.5 - 0.2
24/11:04am 14.1 5.4 10.1 77 2.1 W 46 67 25 36 1007.1 - 0.2
24/11:00am 14.1 5.4 9.9 76 2.2 W 46 61 25 33 1007.2 1007.2 0.2
24/10:30am 14.3 5.3 10.3 77 2.1 W 48 69 26 37 1006.8 - 0.2
24/10:04am 14.2 5.2 10.4 78 2.0 W 48 69 26 37 1006.3 - 0.2
24/10:00am 14.1 4.8 10.5 79 1.9 W 50 69 27 37 1006.2 1006.2 0.2
24/09:32am 12.9 5.9 12.4 97 0.3 WNW 41 63 22 34 1005.7 - 0.2
24/09:30am 13.2 6.8 13.2 100 0.0 WNW 39 56 21 30 1005.7 - 0.2
24/09:00am 13.1 7.0 12.9 99 0.1 WNW 37 50 20 27 1005.5 1005.5 4.4
24/08:30am 12.0 5.6 12.0 100 0.0 WNW 37 50 20 27 1005.3 - 4.4
24/08:00am 11.4 6.5 11.4 100 0.0 W 28 43 15 23 1005.1 1005.1 4.2
24/07:30am 11.1 5.4 11.1 100 0.0 W 32 57 17 31 1004.8 - 3.8
24/07:01am 11.9 3.0 11.9 100 0.0 W 50 69 27 37 1004.1 - 3.6
24/07:00am 11.9 2.6 11.9 100 0.0 W 52 69 28 37 1004.1 1004.1 3.6
24/06:41am 12.6 4.3 12.6 100 0.0 W 48 69 26 37 1003.5 - 2.8
24/06:30am 13.4 5.0 12.3 93 0.6 W 48 63 26 34 1003.6 - 1.0
24/06:28am 14.8 6.1 12.7 87 1.2 W 50 63 27 34 1003.5 - 0.6
24/06:27am 16.2 5.9 14.0 87 1.2 NW 61 82 33 44 1003.5 - 0.6
24/06:00am 16.4 6.4 13.9 85 1.4 NNW 59 74 32 40 1002.5 1002.5 0.6
24/05:30am 16.0 7.2 14.5 91 0.9 NNW 54 63 29 34 1003.4 - 0.6
24/05:00am 16.3 7.3 14.1 87 1.3 NNW 54 65 29 35 1003.6 1003.6 0.6
24/04:30am 16.0 7.7 13.8 87 1.2 NNW 50 59 27 32 1003.8 - 0.6
24/04:00am 15.8 8.6 14.7 93 0.6 NNW 46 56 25 30 1004.4 1004.4 0.6
24/03:30am 15.7 8.8 14.4 92 0.7 NNW 44 54 24 29 1004.9 - 0.6
24/03:00am 15.8 9.5 13.5 86 1.3 NNW 39 50 21 27 1005.6 1005.6 0.6
24/02:30am 15.6 10.2 12.7 83 1.6 NW 33 48 18 26 1006.3 - 0.6
24/02:00am 15.7 9.1 12.5 81 1.8 NW 39 52 21 28 1007.0 1007.0 0.6
24/01:30am 15.5 9.6 12.3 81 1.7 NW 35 46 19 25 1007.6 - 0.6
24/01:00am 15.4 9.5 12.3 82 1.7 NW 35 50 19 27 1008.0 1008.0 0.6
24/12:30am 15.4 10.0 12.3 82 1.7 NW 32 46 17 25 1008.4 - 0.6
24/12:00am 15.3 9.7 12.1 81 1.7 NW 33 46 18 25 1008.6 1008.6 0.6
 
Date/Time
EST
Temp
°C
App
Temp
°C
Dew
Point
Rel
Hum
%
Delta-T
°C
Wind Press
QNH
hPa
Press
MSL
hPa
Rain
since 9 am
mm
Dir
 
Spd
km/h
Gust
km/h
Spd
kts
Gust
kts
23/11:30pm 15.4 10.5 12.5 83 1.6 NW 30 41 16 22 1009.1 - 0.6
23/11:00pm 15.5 10.2 13.0 85 1.4 NW 33 43 18 23 1009.7 1009.7 0.6
23/10:30pm 15.3 10.4 12.6 84 1.5 NW 30 41 16 22 1010.1 - 0.6
23/10:00pm 15.3 10.0 12.6 84 1.5 NW 32 41 17 22 1010.3 1010.3 0.6
23/09:30pm 15.3 10.6 13.2 87 1.2 NW 30 41 16 22 1010.6 - 0.6
23/09:00pm 14.9 10.2 13.1 89 1.0 NW 30 43 16 23 1010.9 1010.8 0.6
23/08:30pm 14.1 11.6 14.1 100 0.0 WNW 20 28 11 15 1011.1 - 0.6
23/08:00pm 15.3 11.6 13.8 91 0.8 NW 26 33 14 18 1011.3 1011.2 0.4
23/07:30pm 15.3 11.3 13.0 86 1.3 WNW 26 35 14 19 1011.5 - 0.4
23/07:00pm 15.1 11.6 13.5 90 0.9 WNW 24 32 13 17 1011.5 1011.4 0.4
23/06:30pm 15.0 12.3 14.5 97 0.3 NNW 22 26 12 14 1011.7 - 0.4
23/06:00pm 14.2 10.1 12.8 91 0.8 WNW 26 37 14 20 1012.0 1011.9 0.4
23/05:30pm 15.5 11.0 13.7 89 1.0 NW 30 39 16 21 1011.6 - 0.4
23/05:00pm 15.6 12.4 13.1 85 1.4 NW 22 30 12 16 1011.6 1011.5 0.4
23/04:30pm 15.6 12.8 13.3 86 1.3 WNW 20 28 11 15 1011.7 - 0.4
23/04:00pm 15.6 12.8 13.3 86 1.3 WNW 20 28 11 15 1012.0 1011.9 0.4
23/03:30pm 15.5 13.4 13.5 88 1.1 NW 17 22 9 12 1012.0 - 0.4
23/03:00pm 16.2 14.8 14.6 90 0.9 NW 15 20 8 11 1012.3 1012.2 0.4
23/02:30pm 16.1 14.5 13.8 86 1.3 NW 15 22 8 12 1012.5 - 0.4
23/02:00pm 16.7 15.2 14.2 85 1.4 NW 15 20 8 11 1012.7 1012.6 0.4
23/01:30pm 16.1 14.9 13.9 87 1.2 NW 13 17 7 9 1012.9 - 0.4
23/01:00pm 15.6 15.8 14.3 92 0.7 WNW 6 9 3 5 1013.3 1013.2 0.4
23/12:30pm 14.6 14.2 14.1 97 0.3 WSW 9 15 5 8 1013.8 - 0.4
23/12:00pm 16.2 15.5 13.3 83 1.6 W 9 13 5 7 1014.3 1014.2 0.0
23/11:30am 17.4 17.5 14.5 83 1.7 W 7 13 4 7 1014.7 - 0.0
23/11:00am 17.0 17.1 13.9 82 1.8 N 6 9 3 5 1015.0 1014.9 0.0
23/10:30am 16.3 16.0 13.4 83 1.6 NNW 7 9 4 5 1015.4 - 0.0
23/10:00am 16.1 15.8 12.8 81 1.8 NNW 6 7 3 4 1015.6 1015.5 0.0
23/09:30am 15.9 16.0 12.8 82 1.7 N 4 6 2 3 1015.6 - 0.0
23/09:00am 15.3 15.7 13.8 91 0.8 W 4 7 2 4 1015.8 1015.7 6.2
23/08:30am 14.0 15.3 14.0 100 0.0 CALM 0 4 0 2 1015.7 - 6.2
23/08:00am 13.2 13.1 13.2 100 0.0 WSW 6 9 3 5 1015.8 1015.7 6.2
23/07:30am 12.9 13.1 12.9 100 0.0 SSW 4 6 2 3 1015.9 - 6.0
23/07:00am 12.2 12.1 12.2 100 0.0 SSW 4 4 2 2 1015.5 1015.4 6.0
23/06:30am 11.8 12.0 11.8 100 0.0 SSW 2 4 1 2 1015.3 - 6.0
23/06:00am 11.8 11.6 11.8 100 0.0 SSW 4 6 2 3 1015.3 1015.2 6.0
23/05:30am 11.2 10.4 11.2 100 0.0 WSW 6 7 3 4 1015.2 - 6.0
23/05:00am 11.4 11.5 11.4 100 0.0 WSW 2 4 1 2 1015.1 1015.0 6.0
23/04:30am 11.3 11.3 11.3 100 0.0 WSW 2 4 1 2 1014.9 - 6.0
23/04:00am 10.0 8.7 9.9 99 0.1 WSW 7 7 4 4 1014.8 1014.7 6.0
23/03:30am 10.2 9.1 10.1 99 0.1 WSW 6 7 3 4 1015.1 - 6.0
23/03:00am 10.7 10.1 10.5 99 0.1 SW 4 7 2 4 1015.0 1014.9 6.0
23/02:30am 11.0 9.6 10.8 99 0.1 WSW 9 13 5 7 1015.0 - 6.0
23/02:00am 11.1 9.6 10.6 97 0.3 SW 9 11 5 6 1015.2 1015.1 6.0
23/01:30am 11.3 9.4 10.4 94 0.5 WSW 11 15 6 8 1015.3 - 6.0
23/01:00am 11.7 10.2 10.6 93 0.6 SW 9 13 5 7 1015.5 1015.4 6.0
23/12:30am 11.6 9.2 10.0 90 0.8 SW 13 17 7 9 1015.5 - 6.0
23/12:00am 11.8 9.4 9.9 88 1.0 WSW 13 17 7 9 1015.4 1015.3 6.0
 
Date/Time
EST
Temp
°C
App
Temp
°C
Dew
Point
Rel
Hum
%
Delta-T
°C
Wind Press
QNH
hPa
Press
MSL
hPa
Rain
since 9 am
mm
Dir
 
Spd
km/h
Gust
km/h
Spd
kts
Gust
kts
22/11:30pm 12.7 10.1 10.6 87 1.1 WSW 15 24 8 13 1015.2 - 6.0
22/11:00pm 12.5 9.8 10.2 86 1.2 WSW 15 22 8 12 1015.1 1015.0 6.0
22/10:30pm 12.5 9.3 10.0 85 1.3 WSW 17 26 9 14 1015.1 - 6.0
22/10:00pm 12.7 10.6 9.9 83 1.4 WSW 11 17 6 9 1015.1 1015.0 6.0
22/09:30pm 13.3 10.1 9.9 80 1.7 W 17 24 9 13 1014.6 - 6.0
22/09:00pm 13.7 10.4 9.4 75 2.2 W 17 24 9 13 1014.2 1014.1 6.0
22/08:30pm 14.7 9.3 9.5 71 2.7 W 28 39 15 21 1013.6 - 6.0
22/08:00pm 14.9 9.6 9.7 71 2.7 W 28 37 15 20 1013.2 1013.1 6.0
22/07:30pm 15.1 8.9 10.1 72 2.6 W 33 44 18 24 1012.9 - 6.0
22/07:00pm 15.4 9.8 11.6 78 2.0 W 32 39 17 21 1012.5 1012.4 6.0
22/06:30pm 15.4 9.9 12.3 82 1.7 W 33 44 18 24 1012.0 - 6.0
22/06:00pm 15.4 9.5 12.5 83 1.6 W 35 48 19 26 1011.5 1011.4 6.0
22/05:30pm 15.4 11.2 12.5 83 1.6 W 26 43 14 23 1011.1 - 6.0
22/05:22pm 15.6 11.4 13.4 87 1.2 WNW 28 46 15 25 1011.0 - 6.0
22/05:00pm 15.6 11.4 13.6 88 1.1 WNW 28 44 15 24 1010.6 1010.6 6.0
22/04:30pm 16.0 11.9 13.7 86 1.3 WNW 28 39 15 21 1010.5 - 6.0
22/04:02pm 16.1 11.1 13.4 84 1.5 WNW 32 52 17 28 1010.2 - 6.0
22/04:00pm 16.1 11.5 13.6 85 1.4 WNW 30 46 16 25 1010.2 1010.2 6.0
22/03:49pm 16.3 11.2 13.6 84 1.5 WNW 33 52 18 28 1010.1 - 6.0
22/03:30pm 16.3 9.8 13.0 81 1.8 WNW 39 50 21 27 1009.8 - 6.0
22/03:00pm 16.4 11.1 15.3 93 0.6 WNW 37 50 20 27 1009.8 1009.8 6.0
22/02:30pm 16.5 11.7 15.5 94 0.6 WNW 35 50 19 27 1009.6 - 6.0
22/02:00pm 16.5 12.3 16.3 99 0.1 WNW 33 48 18 26 1009.3 1009.3 6.0
22/01:56pm 16.9 13.6 16.9 100 0.0 WNW 30 48 16 26 1009.3 - 6.0
22/01:30pm 16.6 12.6 16.6 100 0.0 WNW 33 46 18 25 1009.1 - 6.0
22/01:00pm 16.6 12.8 16.6 100 0.0 WNW 32 46 17 25 1009.3 1009.3 6.0
22/12:39pm 16.4 11.9 16.4 100 0.0 W 35 48 19 26 1009.1 - 6.0
22/12:30pm 15.9 10.5 15.9 100 0.0 NW 39 56 21 30 1009.1 - 6.0
22/12:19pm 15.7 9.8 15.7 100 0.0 NW 41 59 22 32 1009.7 - 5.8
22/12:00pm 16.1 10.0 16.1 100 0.0 NW 43 57 23 31 1009.7 1009.7 4.8
22/11:38am 16.0 9.3 16.0 100 0.0 NW 46 65 25 35 1009.9 - 4.2
22/11:30am 16.1 9.8 16.1 100 0.0 NW 44 61 24 33 1009.9 - 4.0
22/11:24am 16.2 10.5 16.2 100 0.0 NW 41 61 22 33 1010.0 - 4.0
22/11:00am 15.7 9.2 15.7 100 0.0 NW 44 61 24 33 1010.4 1010.4 4.0
22/10:48am 15.7 9.8 15.7 100 0.0 NW 41 61 22 33 1010.3 - 3.4
22/10:30am 15.6 9.7 15.6 100 0.0 NW 41 56 22 30 1010.6 - 3.2
22/10:07am 15.4 8.8 15.4 100 0.0 NW 44 69 24 37 1010.4 - 2.6
22/10:00am 15.6 9.3 15.6 100 0.0 NW 43 57 23 31 1010.4 1010.4 2.4
22/09:34am 15.6 8.7 15.6 100 0.0 NW 46 67 25 36 1010.5 - 1.6
22/09:30am 15.5 8.2 15.5 100 0.0 NW 48 67 26 36 1010.2 - 1.4
22/09:26am 15.4 8.4 15.4 100 0.0 NW 46 67 25 36 1010.2 - 1.2
22/09:00am 15.5 7.8 15.5 100 0.0 NW 50 69 27 37 1010.2 1010.2 11.0
22/08:40am 15.5 7.8 15.5 100 0.0 NW 50 70 27 38 1010.1 - 10.8
22/08:30am 15.6 7.9 15.6 100 0.0 NW 50 67 27 36 1009.9 - 10.8
22/08:00am 15.8 8.2 15.8 100 0.0 NW 50 70 27 38 1010.0 1010.0 9.6

Other Formats:

Comma delimited format used in spreadsheet applications
http://www.bom.gov.au/fwo/IDT60801/IDT60801.95985.axf

JavaScript Object Notation format (JSON) in row-major order
http://www.bom.gov.au/fwo/IDT60801/IDT60801.95985.json